Time;durP1;ratioP1;P1;durP2;ratioP2;P2;SDS_P1;SDS_P2;PMS_P1;PMS_P2;Temp;Humidity;BMP_temperature;BMP_pressure;BME280_temperature;BME280_humidity;BME280_pressure;Samples;Min_cycle;Max_cycle;Signal;HPM_P1;HPM_P2
2022/10/24 00:01:13;;;;;;;0.60;0.60;;;;;;;16.74;79.81;95536.22;4291386;32;20244;-59
2022/10/24 00:03:43;;;;;;;0.50;0.50;;;;;;;16.73;80.83;95540.00;4337179;32;20201;-60
2022/10/24 00:06:17;;;;;;;0.50;0.40;;;;;;;16.84;79.74;95544.63;4311802;32;20246;-59
2022/10/24 00:08:47;;;;;;;1.03;0.77;;;;;;;16.86;79.72;95536.25;4321719;32;20193;-59
2022/10/24 00:11:31;;;;;;;0.60;0.60;;;;;;;16.80;80.31;95548.31;4305497;33;20201;-59
2022/10/24 00:13:58;;;;;;;2.17;0.97;;;;;;;16.85;79.59;95542.75;4303858;32;20206;-59
2022/10/24 00:16:24;;;;;;;2.03;0.70;;;;;;;16.78;81.00;95547.84;4337395;32;20189;-59
2022/10/24 00:18:49;;;;;;;3.30;0.90;;;;;;;16.72;80.46;95549.94;4339216;32;20195;-59
2022/10/24 00:21:15;;;;;;;5.83;0.63;;;;;;;16.77;80.68;95548.97;4338502;32;20284;-59
2022/10/24 00:23:40;;;;;;;1.63;0.37;;;;;;;16.79;80.55;95541.38;4345331;32;20256;-59
2022/10/24 00:26:06;;;;;;;4.00;0.40;;;;;;;16.78;80.78;95542.50;4344364;32;20189;-59
2022/10/24 00:28:34;;;;;;;0.73;0.73;;;;;;;16.74;80.93;95546.94;4351756;32;20214;-59
2022/10/24 00:31:00;;;;;;;0.60;0.40;;;;;;;16.66;81.27;95561.94;4329236;32;20202;-59
2022/10/24 00:33:26;;;;;;;0.33;0.33;;;;;;;16.71;81.29;95577.84;4344529;32;20197;-60
2022/10/24 00:35:52;;;;;;;0.50;0.50;;;;;;;16.69;81.79;95587.31;4347840;32;20263;-62
2022/10/24 00:38:18;;;;;;;0.87;0.87;;;;;;;16.60;83.69;95610.66;4348200;32;20194;-59
2022/10/24 00:40:44;;;;;;;0.43;0.43;;;;;;;16.55;85.32;95629.59;4341912;32;20200;-60
2022/10/24 00:43:14;;;;;;;3.53;1.40;;;;;;;16.46;88.19;95625.06;4359686;32;20197;-59
2022/10/24 00:45:43;;;;;;;0.23;0.23;;;;;;;16.26;90.95;95616.97;4350599;32;20186;-59
2022/10/24 00:48:13;;;;;;;1.30;0.73;;;;;;;16.08;92.38;95614.38;4354719;32;20292;-59
2022/10/24 00:50:38;;;;;;;0.60;0.60;;;;;;;15.89;94.49;95610.50;4324255;32;20277;-60
2022/10/24 00:53:04;;;;;;;2.47;0.90;;;;;;;15.78;94.95;95602.03;4358409;32;20264;-59
2022/10/24 00:55:30;;;;;;;0.57;0.57;;;;;;;15.78;95.25;95597.47;4351524;32;20200;-59
2022/10/24 00:58:00;;;;;;;4.50;0.93;;;;;;;15.68;96.73;95605.81;4331294;32;20189;-60
2022/10/24 01:00:30;;;;;;;0.87;0.60;;;;;;;15.66;97.88;95600.00;4337298;32;20252;-61
2022/10/24 01:02:55;;;;;;;0.80;0.43;;;;;;;15.42;99.65;95584.44;4334968;32;20207;-64
2022/10/24 01:05:25;;;;;;;0.20;0.20;;;;;;;15.47;99.92;95570.13;4340234;32;20198;-60
2022/10/24 01:08:02;;;;;;;0.37;0.37;;;;;;;15.48;100.00;95577.06;4332108;32;20197;-59
2022/10/24 01:10:57;;;;;;;0.40;0.40;;;;;;;15.44;100.00;95582.25;4343098;32;20197;-59
2022/10/24 01:13:29;;;;;;;1.13;0.70;;;;;;;15.27;100.00;95570.78;4336299;32;20260;-59
2022/10/24 01:16:10;;;;;;;0.60;0.47;;;;;;;15.27;100.00;95558.22;4349306;32;20253;-59
2022/10/24 01:18:53;;;;;;;0.87;0.87;;;;;;;15.23;100.00;95553.81;4344574;32;20281;-59
2022/10/24 01:21:24;;;;;;;1.33;0.83;;;;;;;15.29;100.00;95536.50;4347739;32;20213;-59
2022/10/24 01:23:56;;;;;;;0.60;0.60;;;;;;;15.27;100.00;95536.03;4349191;32;20207;-59
2022/10/24 01:26:30;;;;;;;1.20;1.20;;;;;;;15.30;100.00;95544.22;4346796;32;20212;-59
2022/10/24 01:29:17;;;;;;;0.77;0.57;;;;;;;15.25;100.00;95528.34;4333809;32;20212;-60
2022/10/24 01:31:58;;;;;;;0.40;0.40;;;;;;;15.20;100.00;95527.72;4354525;32;20188;-59
2022/10/24 01:34:38;;;;;;;1.03;0.70;;;;;;;15.36;100.00;95510.09;4343883;32;20193;-59
2022/10/24 01:37:14;;;;;;;0.57;0.57;;;;;;;15.38;100.00;95508.66;4338850;32;20277;-60
2022/10/24 01:39:47;;;;;;;1.50;1.17;;;;;;;15.42;100.00;95503.44;4336622;32;20192;-59
2022/10/24 01:42:15;;;;;;;1.07;0.80;;;;;;;15.36;100.00;95488.69;4355498;32;20238;-60
2022/10/24 01:44:46;;;;;;;0.77;0.77;;;;;;;15.42;100.00;95487.41;4346324;32;20224;-59
2022/10/24 01:47:17;;;;;;;0.80;0.80;;;;;;;15.39;100.00;95480.03;4330427;32;20287;-60
2022/10/24 01:49:51;;;;;;;1.13;0.87;;;;;;;15.34;100.00;95494.38;4342058;32;20189;-59
2022/10/24 01:52:19;;;;;;;1.23;0.93;;;;;;;15.31;100.00;95496.87;4345658;32;20201;-60
2022/10/24 01:54:46;;;;;;;2.53;1.33;;;;;;;15.41;100.00;95488.50;4351318;32;20266;-59
2022/10/24 01:57:12;;;;;;;5.40;1.23;;;;;;;15.39;100.00;95488.03;4342155;32;20227;-59
2022/10/24 01:59:41;;;;;;;3.43;0.60;;;;;;;15.49;100.00;95490.38;4343494;32;20205;-59
2022/10/24 02:02:16;;;;;;;3.07;1.30;;;;;;;15.53;100.00;95488.66;4334469;32;20193;-60
2022/10/24 02:05:11;;;;;;;0.50;0.50;;;;;;;15.55;100.00;95482.97;4336219;32;20185;-60
2022/10/24 02:07:40;;;;;;;0.33;0.33;;;;;;;15.39;100.00;95472.00;4337254;32;20189;-59
2022/10/24 02:10:31;;;;;;;0.60;0.60;;;;;;;15.45;100.00;95479.53;4329001;33;20189;-59
2022/10/24 02:13:04;;;;;;;1.63;1.03;;;;;;;15.22;100.00;95454.12;4329361;32;20235;-60
2022/10/24 02:15:34;;;;;;;0.83;0.40;;;;;;;15.15;100.00;95440.50;4323840;33;20190;-60
2022/10/24 02:18:00;;;;;;;0.80;0.80;;;;;;;15.15;100.00;95434.38;4326722;32;20185;-60
2022/10/24 02:20:33;;;;;;;0.50;0.50;;;;;;;15.06;100.00;95419.13;4341834;32;20205;-65
2022/10/24 02:23:17;;;;;;;0.43;0.43;;;;;;;15.19;100.00;95403.97;4335273;32;20204;-60
2022/10/24 02:25:49;;;;;;;0.67;0.60;;;;;;;15.21;100.00;95407.13;4331293;32;20212;-60
2022/10/24 02:28:20;;;;;;;1.07;0.97;;;;;;;15.16;100.00;95379.81;4341819;32;20196;-59
2022/10/24 02:30:52;;;;;;;3.40;0.47;;;;;;;15.16;100.00;95380.59;4335086;32;20273;-59
2022/10/24 02:33:18;;;;;;;0.47;0.47;;;;;;;15.07;100.00;95377.94;4340465;32;20223;-62
2022/10/24 02:35:45;;;;;;;1.17;0.47;;;;;;;15.13;100.00;95368.66;4330620;32;20189;-62
2022/10/24 02:38:17;;;;;;;2.97;0.80;;;;;;;15.12;100.00;95360.97;4340051;32;20285;-62
2022/10/24 02:40:44;;;;;;;0.33;0.33;;;;;;;15.15;100.00;95360.31;4352475;32;20197;-62
2022/10/24 02:43:12;;;;;;;0.60;0.60;;;;;;;15.16;100.00;95358.44;4352866;32;20188;-63
2022/10/24 02:45:38;;;;;;;2.83;1.27;;;;;;;15.15;100.00;95343.50;4326905;32;20185;-62
2022/10/24 02:48:08;;;;;;;0.20;0.20;;;;;;;15.08;100.00;95339.44;4351439;32;20260;-62
2022/10/24 02:50:34;;;;;;;0.13;0.13;;;;;;;15.09;100.00;95343.69;4359188;32;20234;-62
2022/10/24 02:53:03;;;;;;;1.70;0.93;;;;;;;15.08;100.00;95336.75;4352710;32;20193;-62
2022/10/24 02:55:28;;;;;;;0.43;0.43;;;;;;;15.18;100.00;95342.84;4344981;32;20189;-62
2022/10/24 02:57:54;;;;;;;0.40;0.40;;;;;;;15.11;100.00;95352.16;4361165;32;20211;-62
2022/10/24 03:00:19;;;;;;;0.63;0.63;;;;;;;15.08;100.00;95341.31;4342331;32;20260;-62
2022/10/24 03:02:45;;;;;;;1.27;0.33;;;;;;;15.08;100.00;95347.44;4344021;32;20296;-62
2022/10/24 03:05:10;;;;;;;0.10;0.10;;;;;;;15.17;100.00;95346.66;4350408;32;20351;-62
2022/10/24 03:07:35;;;;;;;0.20;0.20;;;;;;;15.15;100.00;95332.81;4333860;32;20245;-62
2022/10/24 03:10:01;;;;;;;0.37;0.37;;;;;;;15.17;100.00;95336.75;4352455;32;20272;-60
2022/10/24 03:12:26;;;;;;;1.23;0.73;;;;;;;15.21;100.00;95334.97;4331008;32;20196;-61
2022/10/24 03:14:52;;;;;;;0.20;0.20;;;;;;;15.28;100.00;95345.94;4347044;32;20237;-61
2022/10/24 03:17:17;;;;;;;1.60;0.70;;;;;;;15.29;100.00;95344.06;4343338;32;20241;-60
2022/10/24 03:19:44;;;;;;;0.20;0.20;;;;;;;15.12;100.00;95345.72;4333347;33;20186;-60
2022/10/24 03:22:09;;;;;;;0.83;0.67;;;;;;;15.23;100.00;95348.00;4341320;33;20186;-60
2022/10/24 03:24:35;;;;;;;0.00;0.00;;;;;;;15.19;100.00;95345.19;4342612;33;20203;-60
2022/10/24 03:27:00;;;;;;;0.30;0.30;;;;;;;15.24;100.00;95357.59;4341804;33;20204;-60
2022/10/24 03:29:26;;;;;;;19.67;1.70;;;;;;;15.29;100.00;95357.41;4343294;32;20194;-60
2022/10/24 03:31:52;;;;;;;0.73;0.73;;;;;;;15.33;100.00;95355.69;4340616;32;20208;-61
2022/10/24 03:34:18;;;;;;;0.20;0.20;;;;;;;15.29;100.00;95360.88;4361035;32;20193;-60
2022/10/24 03:36:52;;;;;;;0.30;0.30;;;;;;;15.33;100.00;95351.13;4344121;32;20312;-61
2022/10/24 03:39:17;;;;;;;0.87;0.70;;;;;;;15.34;100.00;95362.59;4334414;32;20193;-60
2022/10/24 03:41:44;;;;;;;0.20;0.20;;;;;;;15.30;100.00;95357.09;4318330;32;20189;-60
2022/10/24 03:44:12;;;;;;;2.23;0.40;;;;;;;15.29;100.00;95365.44;4327452;32;20189;-60
2022/10/24 03:46:38;;;;;;;1.57;0.63;;;;;;;15.28;100.00;95370.00;4326869;32;20212;-61
2022/10/24 03:49:05;;;;;;;0.33;0.33;;;;;;;15.16;100.00;95382.47;4348817;32;20252;-60
2022/10/24 03:51:31;;;;;;;0.40;0.40;;;;;;;15.13;100.00;95374.00;4293802;32;20264;-60
2022/10/24 03:53:59;;;;;;;0.50;0.50;;;;;;;15.13;100.00;95359.84;4321686;32;20313;-61
2022/10/24 03:56:24;;;;;;;0.20;0.20;;;;;;;15.18;100.00;95356.19;4306914;32;20206;-60
2022/10/24 03:58:52;;;;;;;0.33;0.33;;;;;;;15.22;100.00;95376.63;4304545;32;20270;-60
2022/10/24 04:01:18;;;;;;;0.10;0.10;;;;;;;15.29;100.00;95382.25;4321034;32;20296;-60
2022/10/24 04:03:45;;;;;;;1.43;0.63;;;;;;;15.23;100.00;95388.09;4329953;32;20198;-60
2022/10/24 04:06:12;;;;;;;0.20;0.20;;;;;;;15.19;100.00;95381.81;4323036;32;20201;-61
2022/10/24 04:08:39;;;;;;;0.20;0.20;;;;;;;15.11;100.00;95370.88;4339350;32;20185;-60
2022/10/24 04:11:06;;;;;;;2.53;0.43;;;;;;;15.05;100.00;95379.38;4329939;32;20200;-60
2022/10/24 04:13:34;;;;;;;0.73;0.73;;;;;;;15.09;100.00;95373.06;4342426;32;20240;-60
2022/10/24 04:16:03;;;;;;;0.30;0.30;;;;;;;15.18;100.00;95375.69;4311608;33;20201;-60
2022/10/24 04:18:28;;;;;;;0.27;0.27;;;;;;;15.20;100.00;95386.06;4317855;32;20259;-60
2022/10/24 04:20:57;;;;;;;4.00;0.40;;;;;;;15.20;100.00;95384.19;4341354;32;20245;-60
2022/10/24 04:23:25;;;;;;;0.23;0.23;;;;;;;15.13;100.00;95389.25;4298335;33;20182;-61
2022/10/24 04:25:53;;;;;;;0.63;0.40;;;;;;;15.22;100.00;95392.66;4315005;32;20208;-61
2022/10/24 04:28:19;;;;;;;0.57;0.57;;;;;;;15.21;100.00;95401.00;4325689;32;20193;-61
2022/10/24 04:30:45;;;;;;;0.47;0.47;;;;;;;15.25;100.00;95405.37;4318069;32;20185;-60
2022/10/24 04:33:11;;;;;;;0.30;0.30;;;;;;;15.24;100.00;95422.53;4353442;32;20193;-61
2022/10/24 04:35:39;;;;;;;0.67;0.67;;;;;;;15.21;100.00;95435.75;4316465;32;20308;-60
2022/10/24 04:38:05;;;;;;;0.30;0.30;;;;;;;15.20;100.00;95431.50;4287101;33;20230;-60
2022/10/24 04:40:32;;;;;;;1.10;0.97;;;;;;;15.18;100.00;95425.69;4286295;33;20190;-61
2022/10/24 04:42:58;;;;;;;4.70;1.03;;;;;;;15.19;100.00;95435.28;4308531;33;20194;-61
2022/10/24 04:45:25;;;;;;;0.47;0.47;;;;;;;15.21;100.00;95449.09;4305681;33;20201;-60
2022/10/24 04:47:54;;;;;;;0.87;0.83;;;;;;;15.15;100.00;95442.37;4310841;33;20193;-61
2022/10/24 04:50:24;;;;;;;1.70;0.70;;;;;;;15.15;100.00;95445.06;4315010;33;20269;-61
2022/10/24 04:52:51;;;;;;;0.60;0.60;;;;;;;15.26;100.00;95440.91;4295623;33;20198;-61
2022/10/24 04:55:16;;;;;;;0.33;0.33;;;;;;;15.30;100.00;95425.81;4299134;33;20213;-60
2022/10/24 04:57:43;;;;;;;1.07;0.97;;;;;;;15.35;100.00;95433.66;4315686;32;20212;-60
2022/10/24 05:00:12;;;;;;;0.60;0.60;;;;;;;15.20;100.00;95429.59;4315554;32;20189;-60
2022/10/24 05:02:39;;;;;;;0.87;0.87;;;;;;;15.22;100.00;95423.94;4296536;33;20217;-60
2022/10/24 05:05:06;;;;;;;3.50;0.57;;;;;;;15.23;100.00;95420.97;4292254;33;20194;-60
2022/10/24 05:07:37;;;;;;;3.37;0.97;;;;;;;15.21;100.00;95419.69;4312272;32;20277;-60
2022/10/24 05:10:06;;;;;;;0.80;0.80;;;;;;;15.17;100.00;95424.16;4291227;33;20212;-61
2022/10/24 05:12:33;;;;;;;4.03;1.40;;;;;;;15.11;100.00;95418.97;4301885;33;20298;-61
2022/10/24 05:15:00;;;;;;;1.30;1.20;;;;;;;15.09;100.00;95412.37;4289670;32;20201;-61
2022/10/24 05:17:27;;;;;;;0.57;0.57;;;;;;;15.16;100.00;95409.22;4307247;32;20178;-61
2022/10/24 05:19:53;;;;;;;9.00;0.97;;;;;;;15.21;100.00;95417.03;4300741;32;20209;-61
2022/10/24 05:22:19;;;;;;;0.80;0.80;;;;;;;15.16;100.00;95417.22;4302432;32;20272;-61
2022/10/24 05:24:45;;;;;;;0.93;0.63;;;;;;;15.22;100.00;95414.03;4314978;33;20194;-61
2022/10/24 05:27:10;;;;;;;1.63;0.80;;;;;;;15.34;100.00;95421.41;4321752;32;20209;-61
2022/10/24 05:29:37;;;;;;;4.40;0.77;;;;;;;15.23;100.00;95422.84;4322958;33;20228;-61
2022/10/24 05:32:12;;;;;;;0.87;0.87;;;;;;;15.15;100.00;95423.69;4314460;32;20198;-61
2022/10/24 05:34:38;;;;;;;10.43;2.23;;;;;;;15.15;100.00;95424.47;4315558;33;20201;-61
2022/10/24 05:37:04;;;;;;;0.37;0.37;;;;;;;15.18;100.00;95436.37;4317570;33;20232;-61
2022/10/24 05:39:30;;;;;;;0.40;0.40;;;;;;;15.13;100.00;95432.78;4316990;33;20198;-60
2022/10/24 05:41:56;;;;;;;0.60;0.60;;;;;;;15.19;100.00;95432.59;4310661;33;20207;-61
2022/10/24 05:44:23;;;;;;;2.10;1.03;;;;;;;15.22;100.00;95434.63;4304777;33;20233;-61
2022/10/24 05:46:48;;;;;;;1.03;0.80;;;;;;;15.15;100.00;95434.38;4306845;33;20261;-61
2022/10/24 05:49:14;;;;;;;1.63;1.13;;;;;;;15.07;100.00;95439.41;4309761;33;20200;-61
2022/10/24 05:51:39;;;;;;;0.70;0.70;;;;;;;15.16;100.00;95434.03;4308218;33;20226;-60
2022/10/24 05:54:05;;;;;;;2.90;1.40;;;;;;;15.19;100.00;95449.41;4284084;33;20220;-61
2022/10/24 05:56:31;;;;;;;1.33;0.87;;;;;;;15.23;100.00;95444.22;4312598;33;20265;-61
2022/10/24 05:58:59;;;;;;;0.80;0.80;;;;;;;15.27;100.00;95448.63;4289969;33;20201;-61
2022/10/24 06:01:24;;;;;;;0.87;0.87;;;;;;;15.25;100.00;95456.16;4315939;33;20232;-61
2022/10/24 06:03:50;;;;;;;0.37;0.37;;;;;;;15.16;100.00;95458.09;4305689;33;20197;-61
2022/10/24 06:06:17;;;;;;;2.10;0.73;;;;;;;15.16;100.00;95465.34;4304772;33;20388;-61
2022/10/24 06:08:45;;;;;;;0.67;0.67;;;;;;;15.19;100.00;95464.66;4290337;33;20212;-61
2022/10/24 06:11:11;;;;;;;0.70;0.70;;;;;;;15.15;100.00;95466.44;4302900;33;20198;-61
2022/10/24 06:13:37;;;;;;;0.47;0.47;;;;;;;15.12;100.00;95468.63;4299264;33;20186;-61
2022/10/24 06:16:07;;;;;;;0.23;0.23;;;;;;;15.15;100.00;95471.78;4313349;32;20194;-61
2022/10/24 06:18:35;;;;;;;1.53;1.03;;;;;;;15.28;100.00;95466.22;4281179;33;20208;-61
2022/10/24 06:21:05;;;;;;;2.57;0.63;;;;;;;15.28;100.00;95473.47;4314009;33;20193;-61
2022/10/24 06:23:32;;;;;;;0.40;0.40;;;;;;;15.16;100.00;95471.47;4266584;33;20189;-59
2022/10/24 06:26:03;;;;;;;7.20;2.03;;;;;;;15.21;100.00;95468.59;4294080;33;20198;-46
2022/10/24 06:28:28;;;;;;;4.00;1.40;;;;;;;15.90;100.00;95470.25;4304965;32;20235;-45
2022/10/24 06:30:55;;;;;;;3.97;1.43;;;;;;;16.48;100.00;95467.50;4302271;32;20265;-46
2022/10/24 06:33:21;;;;;;;1.40;1.37;;;;;;;16.68;100.00;95474.00;4303714;33;20210;-46
2022/10/24 06:35:48;;;;;;;0.60;0.60;;;;;;;16.87;100.00;95481.56;4291720;32;20281;-46
2022/10/24 06:38:15;;;;;;;0.50;0.50;;;;;;;17.07;98.97;95479.94;4314830;32;20190;-46
2022/10/24 06:40:41;;;;;;;0.43;0.43;;;;;;;17.26;96.56;95476.75;4283622;33;20217;-42
2022/10/24 06:43:09;;;;;;;1.73;1.20;;;;;;;17.40;95.24;95479.94;4311502;33;20194;-46
2022/10/24 06:45:38;;;;;;;0.60;0.47;;;;;;;17.50;94.09;95477.59;4314804;32;20215;-46
2022/10/24 06:48:09;;;;;;;1.10;1.10;;;;;;;17.66;94.01;95475.09;4317048;32;20197;-46
2022/10/24 06:50:39;;;;;;;1.80;1.43;;;;;;;17.73;93.70;95461.13;4309245;33;20212;-44
2022/10/24 06:53:05;;;;;;;1.90;0.90;;;;;;;17.74;92.72;95452.72;4322703;33;20194;-44
2022/10/24 06:55:32;;;;;;;0.77;0.77;;;;;;;17.85;92.21;95432.41;4314232;33;20217;-46
2022/10/24 06:58:01;;;;;;;0.83;0.83;;;;;;;17.33;90.89;95428.75;4307655;33;20197;-49
2022/10/24 07:00:28;;;;;;;8.50;1.13;;;;;;;16.85;93.89;95427.50;4315329;32;20185;-64
2022/10/24 07:02:54;;;;;;;0.43;0.43;;;;;;;16.74;94.32;95458.50;4287670;33;20206;-62
2022/10/24 07:05:21;;;;;;;0.30;0.30;;;;;;;16.58;93.88;95449.50;4296949;33;20194;-62
2022/10/24 07:07:48;;;;;;;0.97;0.60;;;;;;;16.27;95.56;95450.66;4320145;32;20304;-62
2022/10/24 07:10:14;;;;;;;0.50;0.50;;;;;;;16.27;95.68;95453.31;4312459;33;20194;-62
2022/10/24 07:12:42;;;;;;;0.50;0.50;;;;;;;16.12;96.23;95451.25;4299011;33;20197;-61
2022/10/24 07:15:08;;;;;;;0.40;0.40;;;;;;;16.10;96.75;95458.81;4318408;33;20197;-62
2022/10/24 07:17:43;;;;;;;0.47;0.47;;;;;;;16.10;96.74;95461.47;4308774;33;20219;-62
2022/10/24 07:20:13;;;;;;;0.40;0.40;;;;;;;16.16;96.63;95457.50;4290816;33;20198;-61
2022/10/24 07:22:40;;;;;;;5.93;1.33;;;;;;;16.13;96.69;95463.50;4310525;32;20264;-62
2022/10/24 07:25:07;;;;;;;3.03;0.87;;;;;;;15.98;97.52;95472.09;4303070;33;20203;-62
2022/10/24 07:27:34;;;;;;;0.60;0.60;;;;;;;16.03;97.32;95474.56;4299247;33;20201;-62
2022/10/24 07:30:00;;;;;;;0.30;0.30;;;;;;;16.01;97.86;95476.78;4293966;33;20208;-64
2022/10/24 07:32:29;;;;;;;0.87;0.87;;;;;;;15.90;98.26;95483.63;4284821;33;20221;-64
2022/10/24 07:34:54;;;;;;;1.17;0.90;;;;;;;16.03;97.62;95482.59;4319819;32;20257;-64
2022/10/24 07:37:21;;;;;;;1.17;1.17;;;;;;;15.93;98.10;95496.37;4316075;33;20189;-64
2022/10/24 07:39:47;;;;;;;3.00;0.63;;;;;;;15.86;99.22;95486.16;4324213;32;20275;-63
2022/10/24 07:42:14;;;;;;;0.77;0.60;;;;;;;15.88;99.39;95483.16;4337542;32;20246;-62
2022/10/24 07:44:44;;;;;;;0.67;0.37;;;;;;;15.89;99.53;95477.50;4302867;33;20198;-62
2022/10/24 07:47:10;;;;;;;0.20;0.20;;;;;;;15.80;100.00;95472.19;4314264;33;20199;-63
2022/10/24 07:49:37;;;;;;;0.57;0.50;;;;;;;15.73;100.00;95479.94;4324572;32;20193;-62
2022/10/24 07:52:06;;;;;;;0.67;0.67;;;;;;;15.84;99.68;95482.25;4331581;33;20284;-63
2022/10/24 07:54:32;;;;;;;0.47;0.47;;;;;;;15.79;100.00;95486.66;4320161;32;20291;-63
2022/10/24 07:56:59;;;;;;;0.87;0.83;;;;;;;15.77;100.00;95488.91;4357505;32;20242;-63
2022/10/24 07:59:30;;;;;;;0.67;0.60;;;;;;;15.70;100.00;95487.81;4342241;32;20207;-63
2022/10/24 08:01:55;;;;;;;1.13;1.13;;;;;;;15.73;100.00;95482.63;4337498;33;20194;-62
2022/10/24 08:04:22;;;;;;;1.40;1.10;;;;;;;15.70;100.00;95485.16;4312862;33;20189;-61
2022/10/24 08:06:49;;;;;;;0.50;0.50;;;;;;;15.67;100.00;95499.16;4314241;33;20248;-63
2022/10/24 08:09:15;;;;;;;2.33;0.73;;;;;;;15.75;100.00;95498.34;4309756;33;20244;-62
2022/10/24 08:11:42;;;;;;;1.77;1.67;;;;;;;15.71;100.00;95506.22;4313140;33;20193;-61
2022/10/24 08:14:08;;;;;;;0.30;0.30;;;;;;;15.69;100.00;95500.41;4335552;32;20208;-60
2022/10/24 08:16:36;;;;;;;1.67;1.57;;;;;;;15.82;100.00;95498.59;4318101;32;20303;-61
2022/10/24 08:19:02;;;;;;;2.17;2.03;;;;;;;15.81;100.00;95500.50;4341987;32;20265;-60
2022/10/24 08:21:30;;;;;;;4.00;3.57;;;;;;;15.89;100.00;95498.91;4350794;32;20193;-61
2022/10/24 08:23:58;;;;;;;3.17;2.97;;;;;;;15.88;100.00;95493.88;4338965;32;20193;-62
2022/10/24 08:26:24;;;;;;;2.60;2.50;;;;;;;15.88;100.00;95485.84;4342573;32;20204;-62
2022/10/24 08:28:52;;;;;;;2.33;2.13;;;;;;;15.88;100.00;95483.16;4345322;32;20218;-60
2022/10/24 08:31:21;;;;;;;3.17;2.97;;;;;;;16.01;99.26;95476.78;4345407;32;20208;-62
2022/10/24 08:33:53;;;;;;;5.57;2.57;;;;;;;15.94;99.33;95474.66;4345691;32;20189;-61
2022/10/24 08:36:25;;;;;;;2.53;2.33;;;;;;;15.90;99.76;95483.63;4344360;32;20229;-61
2022/10/24 08:38:51;;;;;;;1.77;1.77;;;;;;;15.96;99.93;95474.31;4335098;32;20215;-63
2022/10/24 08:41:45;;;;;;;4.63;2.33;;;;;;;16.00;99.32;95473.34;4337071;32;20284;-62
2022/10/24 08:44:40;;;;;;;1.90;1.80;;;;;;;15.86;100.00;95478.12;4331749;32;20186;-61
2022/10/24 08:47:40;;;;;;;1.37;1.33;;;;;;;15.75;100.00;95488.44;4356644;32;20192;-61
2022/10/24 08:50:30;;;;;;;1.80;1.40;;;;;;;15.83;100.00;95486.81;4306557;32;20194;-62
2022/10/24 08:53:04;;;;;;;1.63;1.53;;;;;;;15.81;100.00;95495.16;4332537;32;20189;-63
2022/10/24 08:55:48;;;;;;;1.50;0.87;;;;;;;15.86;100.00;95499.53;4343873;32;20228;-62
2022/10/24 08:58:43;;;;;;;0.73;0.73;;;;;;;15.92;100.00;95500.16;4298868;33;20185;-63
2022/10/24 09:01:30;;;;;;;0.97;0.57;;;;;;;15.90;100.00;95500.47;4302601;32;20182;-63
2022/10/24 09:04:04;;;;;;;0.77;0.77;;;;;;;15.87;100.00;95503.00;4348405;32;20185;-60
2022/10/24 09:06:31;;;;;;;1.40;0.70;;;;;;;15.85;100.00;95515.91;4308936;32;20246;-62
2022/10/24 09:09:05;;;;;;;2.43;0.80;;;;;;;15.90;100.00;95513.84;4299896;32;20201;-67
2022/10/24 09:12:15;;;;;;;2.77;0.83;;;;;;;15.82;100.00;95517.34;4348319;32;20195;-62
2022/10/24 09:14:43;;;;;;;1.13;1.13;;;;;;;15.85;100.00;95516.69;4307977;32;20260;-63
2022/10/24 09:17:33;;;;;;;0.93;0.73;;;;;;;15.86;100.00;95522.84;4311990;32;20213;-61
2022/10/24 09:20:06;;;;;;;0.37;0.37;;;;;;;15.89;100.00;95527.56;4330459;32;20231;-62
2022/10/24 09:22:34;;;;;;;1.60;1.17;;;;;;;15.89;100.00;95528.34;4323969;32;20224;-63
2022/10/24 09:25:08;;;;;;;4.87;0.63;;;;;;;16.01;100.00;95515.03;4311375;32;20206;-65
2022/10/24 09:27:41;;;;;;;1.77;1.00;;;;;;;15.98;100.00;95525.63;4312459;33;20257;-64
2022/10/24 09:30:35;;;;;;;7.93;1.67;;;;;;;15.93;100.00;95513.22;4321143;32;20193;-64
2022/10/24 09:33:24;;;;;;;0.30;0.30;;;;;;;15.93;100.00;95515.88;4305757;32;20233;-64
2022/10/24 09:35:55;;;;;;;0.50;0.50;;;;;;;16.02;100.00;95513.94;4342869;32;20150;-63
2022/10/24 09:38:24;;;;;;;1.20;1.17;;;;;;;15.97;100.00;95519.50;4312996;32;20397;-63
2022/10/24 09:40:57;;;;;;;2.93;1.00;;;;;;;15.91;100.00;95517.31;4321335;32;20273;-64
2022/10/24 09:43:45;;;;;;;0.90;0.90;;;;;;;16.04;100.00;95524.31;4298439;33;20202;-63
2022/10/24 09:46:23;;;;;;;0.63;0.63;;;;;;;16.01;100.00;95509.69;4303498;33;20232;-63
2022/10/24 09:49:21;;;;;;;3.03;1.30;;;;;;;16.04;100.00;95522.44;4284654;33;20290;-64
2022/10/24 09:52:28;;;;;;;1.07;1.00;;;;;;;16.13;100.00;95520.50;4309679;33;20272;-63
2022/10/24 09:55:27;;;;;;;1.43;1.33;;;;;;;16.06;100.00;95522.09;4309751;33;20205;-65
2022/10/24 09:58:04;;;;;;;1.00;0.93;;;;;;;16.07;100.00;95518.31;4288004;33;20205;-63
2022/10/24 10:00:35;;;;;;;0.40;0.40;;;;;;;16.01;100.00;95514.25;4299577;33;20237;-65
2022/10/24 10:03:21;;;;;;;0.37;0.37;;;;;;;16.11;100.00;95516.59;4304820;33;20202;-63
2022/10/24 10:05:54;;;;;;;1.00;1.00;;;;;;;16.11;100.00;95517.38;4301379;33;20260;-62
2022/10/24 10:08:36;;;;;;;1.13;1.00;;;;;;;16.20;100.00;95525.38;4298690;33;20209;-63
2022/10/24 10:11:11;;;;;;;1.10;1.03;;;;;;;16.17;100.00;95528.69;4270624;33;20234;-63
2022/10/24 10:13:51;;;;;;;1.07;1.00;;;;;;;16.20;100.00;95528.03;4267996;33;20206;-63
2022/10/24 10:16:35;;;;;;;7.40;1.43;;;;;;;16.23;100.00;95534.63;4276220;33;20255;-62
2022/10/24 10:19:19;;;;;;;0.67;0.67;;;;;;;16.15;100.00;95529.00;4248465;33;20194;-63
2022/10/24 10:22:19;;;;;;;1.00;1.00;;;;;;;16.04;100.00;95518.97;4299380;33;20190;-63
2022/10/24 10:24:47;;;;;;;0.53;0.53;;;;;;;16.09;100.00;95521.47;4318567;33;20196;-63
2022/10/24 10:27:36;;;;;;;1.00;1.00;;;;;;;16.13;100.00;95515.16;4334353;32;20221;-63
2022/10/24 10:30:22;;;;;;;1.20;1.20;;;;;;;16.11;100.00;95517.38;4308332;32;20245;-63
2022/10/24 10:33:28;;;;;;;9.73;0.90;;;;;;;15.90;100.00;95510.38;4297922;32;20282;-63
2022/10/24 10:36:31;;;;;;;0.70;0.70;;;;;;;15.98;100.00;95518.38;4316505;33;20184;-63
2022/10/24 10:39:26;;;;;;;0.97;0.20;;;;;;;15.87;100.00;95522.50;4284802;33;20210;-64
2022/10/24 10:41:59;;;;;;;0.93;0.87;;;;;;;16.05;100.00;95520.53;4331071;32;20197;-63
2022/10/24 10:44:53;;;;;;;0.90;0.90;;;;;;;15.89;100.00;95528.34;4338517;32;20189;-63
2022/10/24 10:47:38;;;;;;;1.90;1.00;;;;;;;15.88;100.00;95532.13;4299925;32;20253;-63
2022/10/24 10:50:52;;;;;;;0.67;0.67;;;;;;;15.89;100.00;95533.69;4325313;32;20249;-63
2022/10/24 10:54:02;;;;;;;0.70;0.70;;;;;;;15.87;100.00;95533.22;4325278;32;20198;-63
2022/10/24 10:56:39;;;;;;;0.83;0.83;;;;;;;15.68;100.00;95530.94;4272179;33;20221;-63
2022/10/24 10:59:42;;;;;;;0.53;0.53;;;;;;;15.84;100.00;95530.41;4258132;33;20194;-63
2022/10/24 11:02:24;;;;;;;3.63;0.90;;;;;;;15.67;100.00;95532.03;4264379;33;20213;-63
2022/10/24 11:05:28;;;;;;;1.53;0.90;;;;;;;15.59;100.00;95530.16;4257941;33;20358;-62
2022/10/24 11:08:28;;;;;;;0.77;0.77;;;;;;;15.46;100.00;95529.22;4299142;32;20218;-63
2022/10/24 11:11:01;;;;;;;0.93;0.93;;;;;;;15.43;100.00;95537.09;4326954;33;20190;-51
2022/10/24 11:13:38;;;;;;;9.63;1.50;;;;;;;16.36;100.00;95539.75;4303320;33;20194;-47
2022/10/24 11:16:15;;;;;;;0.50;0.50;;;;;;;17.02;100.00;95542.63;4337172;32;20232;-51
2022/10/24 11:18:47;;;;;;;1.00;1.00;;;;;;;17.25;97.81;95543.03;4331422;32;20256;-49
2022/10/24 11:21:17;;;;;;;0.43;0.43;;;;;;;17.81;95.97;95551.50;4327578;33;20253;-48
2022/10/24 11:23:54;;;;;;;1.23;1.00;;;;;;;18.11;93.32;95558.22;4303267;32;20240;-50
2022/10/24 11:26:32;;;;;;;0.30;0.30;;;;;;;18.07;91.74;95569.97;4319778;33;20240;-49
2022/10/24 11:29:19;;;;;;;1.63;0.90;;;;;;;18.25;91.29;95573.22;4323232;33;20193;-51
2022/10/24 11:31:51;;;;;;;0.60;0.60;;;;;;;18.31;90.38;95567.28;4319708;33;20194;-48
2022/10/24 11:34:41;;;;;;;0.53;0.53;;;;;;;18.01;90.68;95574.00;4302567;33;20202;-50
2022/10/24 11:37:39;;;;;;;2.87;1.03;;;;;;;18.27;90.03;95581.75;4305783;32;20201;-49
2022/10/24 11:40:19;;;;;;;0.63;0.43;;;;;;;18.03;90.22;95585.97;4320331;32;20204;-65
2022/10/24 11:43:07;;;;;;;0.60;0.60;;;;;;;17.43;90.97;95589.25;4322403;33;20194;-65
2022/10/24 11:45:43;;;;;;;0.63;0.43;;;;;;;16.84;93.88;95579.47;4321114;33;20261;-66
2022/10/24 11:48:34;;;;;;;0.57;0.57;;;;;;;16.21;97.96;95575.09;4319687;32;20208;-67
2022/10/24 11:51:08;;;;;;;0.53;0.53;;;;;;;15.80;100.00;95573.84;4293985;33;20213;-64